sensor_id;sensor_type;location;lat;lon;timestamp;P1;durP1;ratioP1;P2;durP2;ratioP2
18136;SDS011;9194;42.632;23.298;2022-08-18T00:02:51;6.47;;;3.90;;
18136;SDS011;9194;42.632;23.298;2022-08-18T00:07:52;5.15;;;3.92;;
18136;SDS011;9194;42.632;23.298;2022-08-18T00:12:53;5.18;;;3.53;;
18136;SDS011;9194;42.632;23.298;2022-08-18T00:17:55;11.90;;;4.03;;
18136;SDS011;9194;42.632;23.298;2022-08-18T00:22:56;4.47;;;2.83;;
18136;SDS011;9194;42.632;23.298;2022-08-18T00:27:57;4.28;;;3.45;;
18136;SDS011;9194;42.632;23.298;2022-08-18T00:32:59;9.02;;;4.05;;
18136;SDS011;9194;42.632;23.298;2022-08-18T00:38:02;9.43;;;3.80;;
18136;SDS011;9194;42.632;23.298;2022-08-18T00:43:06;5.13;;;3.50;;
18136;SDS011;9194;42.632;23.298;2022-08-18T00:48:12;5.78;;;3.53;;
18136;SDS011;9194;42.632;23.298;2022-08-18T00:53:16;5.45;;;3.90;;
18136;SDS011;9194;42.632;23.298;2022-08-18T00:58:43;5.88;;;4.25;;
18136;SDS011;9194;42.632;23.298;2022-08-18T01:04:08;7.15;;;4.25;;
18136;SDS011;9194;42.632;23.298;2022-08-18T01:09:16;12.38;;;4.68;;
18136;SDS011;9194;42.632;23.298;2022-08-18T01:14:18;9.02;;;3.85;;
18136;SDS011;9194;42.632;23.298;2022-08-18T01:19:20;4.82;;;4.43;;
18136;SDS011;9194;42.632;23.298;2022-08-18T01:24:41;6.57;;;4.47;;
18136;SDS011;9194;42.632;23.298;2022-08-18T01:30:03;7.78;;;4.10;;
18136;SDS011;9194;42.632;23.298;2022-08-18T01:35:11;6.60;;;4.50;;
18136;SDS011;9194;42.632;23.298;2022-08-18T01:40:16;9.27;;;4.35;;
18136;SDS011;9194;42.632;23.298;2022-08-18T01:45:21;6.45;;;4.20;;
18136;SDS011;9194;42.632;23.298;2022-08-18T01:50:22;5.45;;;4.70;;
18136;SDS011;9194;42.632;23.298;2022-08-18T01:55:23;5.18;;;4.60;;
18136;SDS011;9194;42.632;23.298;2022-08-18T02:00:28;8.25;;;5.05;;
18136;SDS011;9194;42.632;23.298;2022-08-18T02:05:31;5.80;;;4.95;;
18136;SDS011;9194;42.632;23.298;2022-08-18T02:10:35;6.20;;;4.88;;
18136;SDS011;9194;42.632;23.298;2022-08-18T02:15:37;7.97;;;4.70;;
18136;SDS011;9194;42.632;23.298;2022-08-18T02:20:38;7.30;;;4.78;;
18136;SDS011;9194;42.632;23.298;2022-08-18T02:25:40;5.22;;;4.72;;
18136;SDS011;9194;42.632;23.298;2022-08-18T02:30:42;8.68;;;5.32;;
18136;SDS011;9194;42.632;23.298;2022-08-18T02:35:43;7.60;;;4.95;;
18136;SDS011;9194;42.632;23.298;2022-08-18T02:40:54;6.80;;;4.55;;
18136;SDS011;9194;42.632;23.298;2022-08-18T02:46:00;6.88;;;4.60;;
18136;SDS011;9194;42.632;23.298;2022-08-18T02:51:12;7.97;;;5.07;;
18136;SDS011;9194;42.632;23.298;2022-08-18T02:56:16;7.35;;;4.82;;
18136;SDS011;9194;42.632;23.298;2022-08-18T03:01:28;5.13;;;4.47;;
18136;SDS011;9194;42.632;23.298;2022-08-18T03:06:34;8.23;;;4.85;;
18136;SDS011;9194;42.632;23.298;2022-08-18T03:11:37;10.60;;;5.15;;
18136;SDS011;9194;42.632;23.298;2022-08-18T03:16:39;5.97;;;5.18;;
18136;SDS011;9194;42.632;23.298;2022-08-18T03:21:44;10.75;;;5.45;;
18136;SDS011;9194;42.632;23.298;2022-08-18T03:26:46;6.32;;;4.97;;
18136;SDS011;9194;42.632;23.298;2022-08-18T03:31:47;5.53;;;4.70;;
18136;SDS011;9194;42.632;23.298;2022-08-18T03:36:49;8.10;;;5.07;;
18136;SDS011;9194;42.632;23.298;2022-08-18T03:41:51;7.85;;;4.97;;
18136;SDS011;9194;42.632;23.298;2022-08-18T03:46:54;5.30;;;4.85;;
18136;SDS011;9194;42.632;23.298;2022-08-18T03:51:55;7.15;;;5.10;;
18136;SDS011;9194;42.632;23.298;2022-08-18T03:56:59;7.20;;;4.97;;
18136;SDS011;9194;42.632;23.298;2022-08-18T04:02:02;7.07;;;5.07;;
18136;SDS011;9194;42.632;23.298;2022-08-18T04:07:06;5.80;;;4.72;;
18136;SDS011;9194;42.632;23.298;2022-08-18T04:12:10;6.32;;;4.32;;
18136;SDS011;9194;42.632;23.298;2022-08-18T04:17:13;5.70;;;4.90;;
18136;SDS011;9194;42.632;23.298;2022-08-18T04:22:16;5.88;;;4.65;;
18136;SDS011;9194;42.632;23.298;2022-08-18T04:27:18;7.95;;;5.55;;
18136;SDS011;9194;42.632;23.298;2022-08-18T04:32:21;7.07;;;4.55;;
18136;SDS011;9194;42.632;23.298;2022-08-18T04:37:23;9.50;;;5.28;;
18136;SDS011;9194;42.632;23.298;2022-08-18T04:42:24;6.63;;;5.45;;
18136;SDS011;9194;42.632;23.298;2022-08-18T04:47:26;5.82;;;4.95;;
18136;SDS011;9194;42.632;23.298;2022-08-18T04:52:27;6.43;;;5.18;;
18136;SDS011;9194;42.632;23.298;2022-08-18T04:57:47;7.85;;;4.70;;
18136;SDS011;9194;42.632;23.298;2022-08-18T05:02:48;8.50;;;5.40;;
18136;SDS011;9194;42.632;23.298;2022-08-18T05:07:49;5.28;;;4.80;;
18136;SDS011;9194;42.632;23.298;2022-08-18T05:12:50;9.27;;;3.97;;
18136;SDS011;9194;42.632;23.298;2022-08-18T05:17:51;5.97;;;4.10;;
18136;SDS011;9194;42.632;23.298;2022-08-18T05:22:53;11.20;;;4.85;;
18136;SDS011;9194;42.632;23.298;2022-08-18T05:27:55;4.22;;;3.90;;
18136;SDS011;9194;42.632;23.298;2022-08-18T05:32:56;4.85;;;4.35;;
18136;SDS011;9194;42.632;23.298;2022-08-18T05:43:41;13.45;;;5.88;;
18136;SDS011;9194;42.632;23.298;2022-08-18T05:48:45;19.38;;;6.53;;
18136;SDS011;9194;42.632;23.298;2022-08-18T05:53:47;15.80;;;6.70;;
18136;SDS011;9194;42.632;23.298;2022-08-18T05:59:07;17.45;;;6.47;;
18136;SDS011;9194;42.632;23.298;2022-08-18T06:04:20;16.60;;;7.35;;
18136;SDS011;9194;42.632;23.298;2022-08-18T06:14:40;15.40;;;6.90;;
18136;SDS011;9194;42.632;23.298;2022-08-18T06:25:13;17.33;;;7.03;;
18136;SDS011;9194;42.632;23.298;2022-08-18T06:36:03;15.30;;;7.20;;
18136;SDS011;9194;42.632;23.298;2022-08-18T06:51:53;9.93;;;6.35;;
18136;SDS011;9194;42.632;23.298;2022-08-18T06:56:56;14.02;;;6.25;;
18136;SDS011;9194;42.632;23.298;2022-08-18T07:07:34;14.93;;;6.35;;
18136;SDS011;9194;42.632;23.298;2022-08-18T07:12:38;12.02;;;5.30;;
18136;SDS011;9194;42.632;23.298;2022-08-18T07:17:39;14.20;;;5.65;;
18136;SDS011;9194;42.632;23.298;2022-08-18T07:22:58;11.88;;;5.55;;
18136;SDS011;9194;42.632;23.298;2022-08-18T07:28:02;11.77;;;5.22;;
18136;SDS011;9194;42.632;23.298;2022-08-18T07:38:16;8.98;;;4.57;;
18136;SDS011;9194;42.632;23.298;2022-08-18T07:43:23;8.35;;;4.22;;
18136;SDS011;9194;42.632;23.298;2022-08-18T07:48:33;5.22;;;4.05;;
18136;SDS011;9194;42.632;23.298;2022-08-18T07:58:55;5.28;;;3.78;;
18136;SDS011;9194;42.632;23.298;2022-08-18T08:30:34;8.25;;;4.13;;
18136;SDS011;9194;42.632;23.298;2022-08-18T08:46:24;6.10;;;3.63;;
18136;SDS011;9194;42.632;23.298;2022-08-18T08:56:46;6.80;;;3.63;;
18136;SDS011;9194;42.632;23.298;2022-08-18T09:02:08;4.07;;;3.67;;
18136;SDS011;9194;42.632;23.298;2022-08-18T09:07:28;7.68;;;3.85;;
18136;SDS011;9194;42.632;23.298;2022-08-18T09:40:46;6.40;;;2.90;;
18136;SDS011;9194;42.632;23.298;2022-08-18T09:46:10;3.05;;;2.90;;
18136;SDS011;9194;42.632;23.298;2022-08-18T10:01:56;5.38;;;3.20;;
18136;SDS011;9194;42.632;23.298;2022-08-18T10:28:54;7.35;;;3.20;;
18136;SDS011;9194;42.632;23.298;2022-08-18T10:34:04;3.70;;;3.10;;
18136;SDS011;9194;42.632;23.298;2022-08-18T10:39:21;5.80;;;3.20;;
18136;SDS011;9194;42.632;23.298;2022-08-18T10:44:27;3.58;;;3.13;;
18136;SDS011;9194;42.632;23.298;2022-08-18T10:49:31;5.95;;;3.20;;
18136;SDS011;9194;42.632;23.298;2022-08-18T11:05:10;5.15;;;3.25;;
18136;SDS011;9194;42.632;23.298;2022-08-18T11:10:16;7.03;;;3.08;;
18136;SDS011;9194;42.632;23.298;2022-08-18T11:15:27;4.55;;;3.25;;
18136;SDS011;9194;42.632;23.298;2022-08-18T11:20:37;3.42;;;3.05;;
18136;SDS011;9194;42.632;23.298;2022-08-18T11:25:42;4.13;;;3.20;;
18136;SDS011;9194;42.632;23.298;2022-08-18T11:30:45;5.00;;;3.13;;
18136;SDS011;9194;42.632;23.298;2022-08-18T11:35:56;3.13;;;2.92;;
18136;SDS011;9194;42.632;23.298;2022-08-18T11:41:09;3.85;;;3.10;;
18136;SDS011;9194;42.632;23.298;2022-08-18T11:51:24;4.60;;;3.10;;
18136;SDS011;9194;42.632;23.298;2022-08-18T11:56:33;3.50;;;3.20;;
18136;SDS011;9194;42.632;23.298;2022-08-18T12:11:56;3.05;;;2.83;;
18136;SDS011;9194;42.632;23.298;2022-08-18T12:17:00;3.60;;;3.00;;
18136;SDS011;9194;42.632;23.298;2022-08-18T12:22:11;7.60;;;3.17;;
18136;SDS011;9194;42.632;23.298;2022-08-18T12:27:16;3.38;;;3.08;;
18136;SDS011;9194;42.632;23.298;2022-08-18T12:32:20;3.83;;;3.22;;
18136;SDS011;9194;42.632;23.298;2022-08-18T12:37:41;6.68;;;3.33;;
18136;SDS011;9194;42.632;23.298;2022-08-18T12:42:44;4.13;;;2.90;;
18136;SDS011;9194;42.632;23.298;2022-08-18T12:47:45;3.55;;;3.13;;
18136;SDS011;9194;42.632;23.298;2022-08-18T12:52:46;3.80;;;3.47;;
18136;SDS011;9194;42.632;23.298;2022-08-18T12:57:48;11.07;;;3.22;;
18136;SDS011;9194;42.632;23.298;2022-08-18T13:02:49;6.63;;;3.55;;
18136;SDS011;9194;42.632;23.298;2022-08-18T13:07:52;6.35;;;3.58;;
18136;SDS011;9194;42.632;23.298;2022-08-18T13:12:53;6.55;;;4.00;;
18136;SDS011;9194;42.632;23.298;2022-08-18T13:17:54;3.22;;;3.03;;
18136;SDS011;9194;42.632;23.298;2022-08-18T13:22:56;4.60;;;3.40;;
18136;SDS011;9194;42.632;23.298;2022-08-18T13:27:58;4.65;;;3.60;;
18136;SDS011;9194;42.632;23.298;2022-08-18T13:33:00;3.40;;;3.10;;
18136;SDS011;9194;42.632;23.298;2022-08-18T13:38:02;3.95;;;3.28;;
18136;SDS011;9194;42.632;23.298;2022-08-18T13:43:07;4.97;;;4.47;;
18136;SDS011;9194;42.632;23.298;2022-08-18T13:48:10;3.83;;;3.53;;
18136;SDS011;9194;42.632;23.298;2022-08-18T13:53:12;5.43;;;3.42;;
18136;SDS011;9194;42.632;23.298;2022-08-18T13:58:19;3.72;;;3.40;;
18136;SDS011;9194;42.632;23.298;2022-08-18T14:03:20;9.48;;;3.15;;
18136;SDS011;9194;42.632;23.298;2022-08-18T14:08:23;3.50;;;3.20;;
18136;SDS011;9194;42.632;23.298;2022-08-18T14:13:26;5.15;;;3.70;;
18136;SDS011;9194;42.632;23.298;2022-08-18T14:18:28;3.40;;;3.03;;
18136;SDS011;9194;42.632;23.298;2022-08-18T14:23:31;4.93;;;3.17;;
18136;SDS011;9194;42.632;23.298;2022-08-18T14:28:51;4.78;;;3.22;;
18136;SDS011;9194;42.632;23.298;2022-08-18T14:33:52;5.07;;;3.10;;
18136;SDS011;9194;42.632;23.298;2022-08-18T14:38:53;7.03;;;3.33;;
18136;SDS011;9194;42.632;23.298;2022-08-18T14:43:55;5.68;;;3.25;;
18136;SDS011;9194;42.632;23.298;2022-08-18T14:48:58;4.15;;;2.90;;
18136;SDS011;9194;42.632;23.298;2022-08-18T14:54:00;4.85;;;3.58;;
18136;SDS011;9194;42.632;23.298;2022-08-18T14:59:02;4.03;;;3.38;;
18136;SDS011;9194;42.632;23.298;2022-08-18T15:04:07;3.58;;;3.25;;
18136;SDS011;9194;42.632;23.298;2022-08-18T15:09:11;3.33;;;3.13;;
18136;SDS011;9194;42.632;23.298;2022-08-18T15:14:12;484.60;;;58.58;;
18136;SDS011;9194;42.632;23.298;2022-08-18T15:19:14;6.32;;;3.88;;
18136;SDS011;9194;42.632;23.298;2022-08-18T15:24:16;3.38;;;3.13;;
18136;SDS011;9194;42.632;23.298;2022-08-18T15:29:35;7.35;;;4.70;;
18136;SDS011;9194;42.632;23.298;2022-08-18T15:34:37;721.55;;;106.65;;
18136;SDS011;9194;42.632;23.298;2022-08-18T15:39:39;10.23;;;7.45;;
18136;SDS011;9194;42.632;23.298;2022-08-18T15:44:41;16.45;;;10.70;;
18136;SDS011;9194;42.632;23.298;2022-08-18T15:49:42;40.03;;;25.73;;
18136;SDS011;9194;42.632;23.298;2022-08-18T15:54:44;32.40;;;21.50;;
18136;SDS011;9194;42.632;23.298;2022-08-18T15:59:45;20.98;;;12.80;;
18136;SDS011;9194;42.632;23.298;2022-08-18T16:04:46;33.40;;;20.02;;
18136;SDS011;9194;42.632;23.298;2022-08-18T16:09:47;17.20;;;11.10;;
18136;SDS011;9194;42.632;23.298;2022-08-18T16:14:49;7.95;;;4.95;;
18136;SDS011;9194;42.632;23.298;2022-08-18T16:19:52;58.25;;;26.40;;
18136;SDS011;9194;42.632;23.298;2022-08-18T16:24:54;338.20;;;145.82;;
18136;SDS011;9194;42.632;23.298;2022-08-18T16:29:55;32.15;;;15.98;;
18136;SDS011;9194;42.632;23.298;2022-08-18T16:34:57;18.77;;;9.60;;
18136;SDS011;9194;42.632;23.298;2022-08-18T16:39:58;109.68;;;46.65;;
18136;SDS011;9194;42.632;23.298;2022-08-18T16:45:05;426.38;;;161.93;;
18136;SDS011;9194;42.632;23.298;2022-08-18T16:50:09;66.43;;;29.77;;
18136;SDS011;9194;42.632;23.298;2022-08-18T17:01:25;44.03;;;26.65;;
18136;SDS011;9194;42.632;23.298;2022-08-18T17:06:45;78.05;;;42.28;;
18136;SDS011;9194;42.632;23.298;2022-08-18T17:11:46;75.85;;;41.15;;
18136;SDS011;9194;42.632;23.298;2022-08-18T17:16:48;135.95;;;67.43;;
18136;SDS011;9194;42.632;23.298;2022-08-18T17:22:00;173.60;;;81.03;;
18136;SDS011;9194;42.632;23.298;2022-08-18T17:27:08;564.53;;;275.77;;
18136;SDS011;9194;42.632;23.298;2022-08-18T17:32:24;422.25;;;200.35;;
18136;SDS011;9194;42.632;23.298;2022-08-18T17:37:28;179.55;;;90.78;;
18136;SDS011;9194;42.632;23.298;2022-08-18T17:42:30;126.63;;;67.07;;
18136;SDS011;9194;42.632;23.298;2022-08-18T17:47:35;104.13;;;53.72;;
18136;SDS011;9194;42.632;23.298;2022-08-18T17:52:43;84.95;;;45.63;;
18136;SDS011;9194;42.632;23.298;2022-08-18T17:57:55;58.15;;;29.02;;
18136;SDS011;9194;42.632;23.298;2022-08-18T18:03:01;76.75;;;38.65;;
18136;SDS011;9194;42.632;23.298;2022-08-18T18:08:03;23.55;;;14.75;;
18136;SDS011;9194;42.632;23.298;2022-08-18T18:23:33;8.82;;;3.65;;
18136;SDS011;9194;42.632;23.298;2022-08-18T18:28:41;4.50;;;3.13;;
18136;SDS011;9194;42.632;23.298;2022-08-18T18:33:42;4.25;;;2.70;;
18136;SDS011;9194;42.632;23.298;2022-08-18T18:38:43;3.35;;;2.70;;
18136;SDS011;9194;42.632;23.298;2022-08-18T18:43:48;5.05;;;2.72;;
18136;SDS011;9194;42.632;23.298;2022-08-18T18:59:22;2.70;;;2.50;;
18136;SDS011;9194;42.632;23.298;2022-08-18T19:04:54;3.63;;;2.60;;
18136;SDS011;9194;42.632;23.298;2022-08-18T19:10:03;3.50;;;2.53;;
18136;SDS011;9194;42.632;23.298;2022-08-18T19:15:21;2.78;;;2.58;;
18136;SDS011;9194;42.632;23.298;2022-08-18T19:20:26;6.18;;;2.40;;
18136;SDS011;9194;42.632;23.298;2022-08-18T19:25:33;5.68;;;2.40;;
18136;SDS011;9194;42.632;23.298;2022-08-18T19:30:41;2.88;;;2.55;;
18136;SDS011;9194;42.632;23.298;2022-08-18T19:36:36;4.63;;;2.13;;
18136;SDS011;9194;42.632;23.298;2022-08-18T19:46:38;2.97;;;2.78;;
18136;SDS011;9194;42.632;23.298;2022-08-18T19:51:45;6.15;;;2.85;;
18136;SDS011;9194;42.632;23.298;2022-08-18T20:02:33;3.75;;;3.20;;
18136;SDS011;9194;42.632;23.298;2022-08-18T20:18:42;4.28;;;3.25;;
18136;SDS011;9194;42.632;23.298;2022-08-18T20:28:56;2.72;;;2.50;;
18136;SDS011;9194;42.632;23.298;2022-08-18T20:34:03;3.25;;;2.92;;
18136;SDS011;9194;42.632;23.298;2022-08-18T20:45:49;3.83;;;3.10;;
18136;SDS011;9194;42.632;23.298;2022-08-18T20:51:01;4.65;;;3.20;;
18136;SDS011;9194;42.632;23.298;2022-08-18T20:56:13;5.25;;;3.28;;
18136;SDS011;9194;42.632;23.298;2022-08-18T21:01:19;7.07;;;3.63;;
18136;SDS011;9194;42.632;23.298;2022-08-18T21:06:24;5.32;;;3.67;;
18136;SDS011;9194;42.632;23.298;2022-08-18T21:11:39;6.22;;;3.80;;
18136;SDS011;9194;42.632;23.298;2022-08-18T21:16:43;6.28;;;4.13;;
18136;SDS011;9194;42.632;23.298;2022-08-18T21:27:30;6.05;;;4.38;;
18136;SDS011;9194;42.632;23.298;2022-08-18T21:32:36;4.75;;;4.35;;
18136;SDS011;9194;42.632;23.298;2022-08-18T21:37:39;9.25;;;4.20;;
18136;SDS011;9194;42.632;23.298;2022-08-18T21:42:41;6.32;;;4.10;;
18136;SDS011;9194;42.632;23.298;2022-08-18T21:47:46;5.13;;;4.55;;
18136;SDS011;9194;42.632;23.298;2022-08-18T21:52:53;4.63;;;4.22;;
18136;SDS011;9194;42.632;23.298;2022-08-18T21:58:04;4.60;;;4.20;;
18136;SDS011;9194;42.632;23.298;2022-08-18T22:03:19;5.25;;;4.43;;
18136;SDS011;9194;42.632;23.298;2022-08-18T22:08:23;6.05;;;4.22;;
18136;SDS011;9194;42.632;23.298;2022-08-18T22:13:26;4.82;;;4.35;;
18136;SDS011;9194;42.632;23.298;2022-08-18T22:18:46;4.90;;;4.40;;
18136;SDS011;9194;42.632;23.298;2022-08-18T22:23:48;7.32;;;4.38;;
18136;SDS011;9194;42.632;23.298;2022-08-18T22:34:43;7.35;;;4.07;;
18136;SDS011;9194;42.632;23.298;2022-08-18T22:39:47;8.90;;;4.40;;
18136;SDS011;9194;42.632;23.298;2022-08-18T22:44:51;5.97;;;4.00;;
18136;SDS011;9194;42.632;23.298;2022-08-18T22:49:52;6.20;;;4.20;;
18136;SDS011;9194;42.632;23.298;2022-08-18T22:54:54;6.20;;;4.28;;
18136;SDS011;9194;42.632;23.298;2022-08-18T22:59:55;4.82;;;4.40;;
18136;SDS011;9194;42.632;23.298;2022-08-18T23:04:56;4.50;;;4.10;;
18136;SDS011;9194;42.632;23.298;2022-08-18T23:09:58;5.00;;;4.40;;
18136;SDS011;9194;42.632;23.298;2022-08-18T23:15:00;4.60;;;4.18;;
18136;SDS011;9194;42.632;23.298;2022-08-18T23:20:10;4.57;;;4.13;;
18136;SDS011;9194;42.632;23.298;2022-08-18T23:25:14;4.90;;;4.40;;
18136;SDS011;9194;42.632;23.298;2022-08-18T23:35:41;4.68;;;4.18;;
18136;SDS011;9194;42.632;23.298;2022-08-18T23:40:46;4.97;;;4.03;;
18136;SDS011;9194;42.632;23.298;2022-08-18T23:45:50;6.88;;;3.97;;
18136;SDS011;9194;42.632;23.298;2022-08-18T23:50:51;6.13;;;3.90;;
18136;SDS011;9194;42.632;23.298;2022-08-18T23:55:52;4.10;;;3.70;;
